Crichton, West Virginia
Current Conditions -  °F | °C
As of 6:55 PM on Monday 20 Oct 2014 (Local Time) from KLWB Reporting Station
Broken Clouds Broken Clouds  
Wind Chill: 55°   Ceiling: 10000
Heat Index: 55°   Visibility: 10mi
Dew Point: 43°   Wind: 6mph
Humidity: 64%   Direction: 210°SSW
Pressure: 29.97"   Gusts: NA
Location:  38.06°N, 80.72°W
Report Text: KLWB 202255Z AUTO 21005KT 10SM SCT070 SCT080 BKN100 13/06 A2997 RMK AO2 T01300063
Loading
Personal Weather Stations






























Interactive Weather Map
Tropical Storm Tracking
New forecast layout! Learn more

10-Day Weather Forecast

Advertisements
Track Severe Weather on mobile